Time;durP1;ratioP1;P1;durP2;ratioP2;P2;SDS_P1;SDS_P2;PMS_P1;PMS_P2;Temp;Humidity;BMP_temperature;BMP_pressure;BME280_temperature;BME280_humidity;BME280_pressure;Samples;Min_cycle;Max_cycle;Signal;HPM_P1;HPM_P2
2021/07/15 00:01:45;;;;;;;3.53;1.77;;;;;;;19.95;nan;100147.50;5005067;28;20033;-79
2021/07/15 00:04:12;;;;;;;4.93;1.80;;;;;;;20.01;nan;100150.72;5006032;28;20045;-81
2021/07/15 00:06:38;;;;;;;4.53;2.28;;;;;;;19.98;nan;100150.88;4969784;28;20057;-80
2021/07/15 00:09:05;;;;;;;2.90;2.13;;;;;;;20.03;nan;100153.31;5005909;28;20034;-80
2021/07/15 00:11:34;;;;;;;3.50;2.22;;;;;;;19.99;nan;100162.44;5004917;28;20476;-80
2021/07/15 00:13:59;;;;;;;5.35;2.63;;;;;;;19.99;nan;100163.34;4954096;28;20027;-81
2021/07/15 00:16:25;;;;;;;4.63;2.25;;;;;;;20.02;nan;100163.16;5003558;28;20382;-80
2021/07/15 00:18:51;;;;;;;7.85;2.38;;;;;;;20.10;nan;100171.69;4966563;28;20041;-80
2021/07/15 00:21:20;;;;;;;3.42;2.45;;;;;;;20.14;nan;100172.38;5006602;28;20045;-80
2021/07/15 00:23:46;;;;;;;8.23;2.95;;;;;;;20.18;nan;100173.09;4999322;28;20120;-80
2021/07/15 00:26:12;;;;;;;3.17;2.40;;;;;;;20.17;nan;100171.34;5006588;28;20041;-80
2021/07/15 00:28:39;;;;;;;5.63;1.83;;;;;;;20.17;nan;100171.34;5004270;28;20049;-80
2021/07/15 00:31:06;;;;;;;3.97;1.83;;;;;;;20.17;nan;100176.72;5007058;28;20038;-80
2021/07/15 00:33:31;;;;;;;3.80;2.25;;;;;;;20.20;nan;100173.88;5003959;28;20035;-80
2021/07/15 00:35:57;;;;;;;2.90;2.03;;;;;;;20.24;nan;100183.50;4988974;28;20046;-80
2021/07/15 00:38:24;;;;;;;4.70;2.03;;;;;;;20.23;nan;100173.72;4987424;28;20064;-80
2021/07/15 00:40:49;;;;;;;4.13;2.47;;;;;;;20.03;nan;100164.03;5006413;28;20054;-80
2021/07/15 00:43:15;;;;;;;3.50;2.05;;;;;;;20.00;nan;100170.41;4987691;28;20064;-80
2021/07/15 00:45:40;;;;;;;3.08;1.83;;;;;;;20.09;nan;100169.06;4988145;28;20571;-81
2021/07/15 00:48:06;;;;;;;3.78;1.92;;;;;;;20.16;nan;100164.28;4987801;28;20369;-81
2021/07/15 00:50:32;;;;;;;4.57;2.20;;;;;;;20.20;nan;100164.03;5005100;28;20556;-80
2021/07/15 00:52:58;;;;;;;3.80;1.85;;;;;;;20.19;nan;100158.75;4988465;28;20030;-80
2021/07/15 00:55:32;;;;;;;8.35;1.90;;;;;;;20.16;nan;100158.91;5003105;28;20503;-81
2021/07/15 00:57:58;;;;;;;3.75;1.98;;;;;;;20.01;nan;100164.09;5007206;28;20029;-81
2021/07/15 01:00:24;;;;;;;3.95;2.03;;;;;;;20.03;nan;100159.53;5004178;28;20046;-81
2021/07/15 01:02:51;;;;;;;4.20;2.17;;;;;;;19.97;nan;100170.56;5004336;28;20064;-81
2021/07/15 01:05:22;;;;;;;4.30;2.15;;;;;;;19.98;nan;100163.41;4985768;28;20050;-81
2021/07/15 01:07:47;;;;;;;7.20;2.22;;;;;;;19.96;nan;100166.16;4987705;28;20519;-81
2021/07/15 01:10:16;;;;;;;4.50;2.00;;;;;;;20.03;nan;100164.03;4987956;28;20038;-81
2021/07/15 01:12:52;;;;;;;4.90;2.20;;;;;;;19.99;nan;100160.66;5003657;28;20048;-81
2021/07/15 01:15:22;;;;;;;4.82;2.00;;;;;;;19.94;nan;100160.03;4986777;28;20109;-82
2021/07/15 01:17:57;;;;;;;3.95;2.25;;;;;;;19.95;nan;100166.25;5004951;28;20038;-81
2021/07/15 01:21:03;;;;;;;5.68;2.25;;;;;;;19.92;nan;100169.94;4993894;28;20030;-82
2021/07/15 01:23:32;;;;;;;4.10;2.22;;;;;;;19.94;nan;100173.41;5000109;28;20072;-81
2021/07/15 01:26:27;;;;;;;3.15;2.10;;;;;;;19.96;nan;100165.28;4969483;28;20102;-81
2021/07/15 01:29:08;;;;;;;3.88;2.47;;;;;;;19.92;nan;100159.22;4983010;28;20031;-81
2021/07/15 01:31:37;;;;;;;3.00;2.00;;;;;;;19.86;nan;100157.72;5004487;28;20045;-81
2021/07/15 01:34:03;;;;;;;4.78;2.80;;;;;;;19.83;nan;100154.31;4956028;28;20041;-81
2021/07/15 01:36:34;;;;;;;3.17;2.25;;;;;;;19.74;nan;100150.31;5004324;28;20050;-80
2021/07/15 01:39:07;;;;;;;4.38;2.40;;;;;;;19.74;nan;100147.63;5005937;28;20049;-80
2021/07/15 01:41:38;;;;;;;4.30;2.35;;;;;;;19.66;nan;100145.34;4998998;28;20030;-80
2021/07/15 01:44:10;;;;;;;7.60;2.60;;;;;;;19.64;nan;100152.53;4965824;28;20382;-80
2021/07/15 01:46:36;;;;;;;3.67;2.28;;;;;;;19.58;nan;100160.88;4954187;28;20404;-80
2021/07/15 01:49:03;;;;;;;3.00;2.13;;;;;;;19.53;nan;100154.03;4987472;28;20034;-80
2021/07/15 01:51:29;;;;;;;2.97;2.10;;;;;;;19.53;nan;100156.69;4954247;28;20477;-80
2021/07/15 01:53:55;;;;;;;4.35;2.00;;;;;;;19.52;nan;100150.47;5005591;28;20034;-80
2021/07/15 01:56:21;;;;;;;5.05;1.90;;;;;;;19.41;nan;100156.38;4969777;28;20030;-80
2021/07/15 01:58:49;;;;;;;5.28;2.20;;;;;;;19.32;nan;100161.28;5006443;28;20030;-80
2021/07/15 02:01:16;;;;;;;3.72;2.00;;;;;;;19.27;nan;100153.47;4969561;28;20088;-80
2021/07/15 02:03:50;;;;;;;4.10;2.10;;;;;;;19.21;nan;100154.63;5006907;28;20492;-80
2021/07/15 02:06:17;;;;;;;3.28;2.17;;;;;;;19.32;nan;100159.47;5004005;28;20066;-79
2021/07/15 02:08:45;;;;;;;3.40;2.33;;;;;;;19.34;nan;100156.72;5005631;28;20080;-80
2021/07/15 02:11:12;;;;;;;3.25;2.20;;;;;;;19.30;nan;100158.66;5003825;28;20026;-80
2021/07/15 02:13:39;;;;;;;3.83;2.33;;;;;;;19.27;nan;100159.69;5005815;28;20034;-80
2021/07/15 02:16:06;;;;;;;5.07;2.22;;;;;;;19.23;nan;100168.81;4986049;28;20034;-80
2021/07/15 02:18:31;;;;;;;3.63;2.30;;;;;;;19.19;nan;100166.34;5003015;28;20512;-80
2021/07/15 02:20:58;;;;;;;3.22;1.80;;;;;;;19.16;nan;100156.66;4968890;28;20034;-80
2021/07/15 02:23:26;;;;;;;3.22;2.10;;;;;;;19.14;nan;100163.88;5002429;28;20038;-80
2021/07/15 02:25:54;;;;;;;4.20;2.25;;;;;;;19.17;nan;100174.44;4987603;28;20455;-80
2021/07/15 02:28:21;;;;;;;3.35;2.15;;;;;;;19.27;nan;100178.41;4969462;28;20046;-80
2021/07/15 02:30:50;;;;;;;3.40;2.30;;;;;;;19.22;nan;100182.25;5005793;28;20041;-80
2021/07/15 02:33:19;;;;;;;3.65;2.30;;;;;;;19.13;nan;100186.25;5002759;28;20094;-80
2021/07/15 02:35:50;;;;;;;4.07;2.50;;;;;;;19.11;nan;100184.56;5006463;28;20038;-80
2021/07/15 02:38:22;;;;;;;4.70;2.13;;;;;;;19.13;nan;100180.03;5007164;28;20077;-80
2021/07/15 02:40:47;;;;;;;;;;;;;;;19.14;nan;100185.28;4990503;28;20297;-80
2021/07/15 02:43:13;;;;;;;3.97;2.42;;;;;;;19.17;nan;100174.44;5007696;28;20303;-80
2021/07/15 02:45:38;;;;;;;8.70;2.88;;;;;;;19.23;nan;100187.53;5008391;28;20511;-80
2021/07/15 02:48:04;;;;;;;4.75;2.83;;;;;;;19.26;nan;100173.16;5005686;28;20046;-80
2021/07/15 02:50:29;;;;;;;5.93;3.10;;;;;;;19.20;nan;100174.31;5008912;28;20041;-80
2021/07/15 02:52:56;;;;;;;3.72;2.47;;;;;;;19.10;nan;100173.00;4988552;28;20101;-80
2021/07/15 02:55:23;;;;;;;4.03;2.53;;;;;;;19.06;nan;100176.75;4990389;28;20043;-81
2021/07/15 02:58:16;;;;;;;4.00;2.50;;;;;;;18.99;nan;100180.66;5004894;28;20045;-81
2021/07/15 03:00:54;;;;;;;3.08;2.50;;;;;;;18.93;nan;100176.47;5009443;28;20038;-80
2021/07/15 03:03:27;;;;;;;5.90;2.42;;;;;;;18.87;nan;100174.09;5003604;28;20038;-80
2021/07/15 03:06:00;;;;;;;4.50;2.58;;;;;;;18.91;nan;100174.78;4990285;28;20522;-81
2021/07/15 03:08:30;;;;;;;4.13;2.45;;;;;;;18.90;nan;100179.28;5008624;28;20054;-81
2021/07/15 03:10:58;;;;;;;5.90;2.47;;;;;;;18.93;nan;100176.47;4985591;28;20034;-81
2021/07/15 03:13:25;;;;;;;3.38;2.50;;;;;;;18.92;nan;100185.44;5013273;28;20034;-81
2021/07/15 03:15:51;;;;;;;5.43;2.70;;;;;;;18.95;nan;100176.41;4990817;28;20030;-80
2021/07/15 03:18:19;;;;;;;3.67;2.40;;;;;;;19.00;nan;100167.22;5004022;28;20034;-80
2021/07/15 03:20:46;;;;;;;7.07;2.63;;;;;;;19.06;nan;100174.09;5008829;28;20042;-79
2021/07/15 03:23:16;;;;;;;3.67;2.03;;;;;;;19.11;nan;100165.84;4972538;28;20074;-80
2021/07/15 03:25:47;;;;;;;5.38;2.58;;;;;;;19.17;nan;100162.88;4987487;28;20061;-79
2021/07/15 03:28:15;;;;;;;6.13;2.60;;;;;;;19.26;nan;100157.09;5008150;28;20034;-80
2021/07/15 03:30:41;;;;;;;4.45;2.60;;;;;;;19.29;nan;100158.75;5007006;28;20060;-81
2021/07/15 03:33:07;;;;;;;4.28;2.20;;;;;;;19.37;nan;100165.47;4986681;28;20034;-80
2021/07/15 03:35:33;;;;;;;5.28;3.10;;;;;;;19.45;nan;100167.78;5005670;28;20038;-80
2021/07/15 03:37:59;;;;;;;3.78;2.50;;;;;;;19.45;nan;100167.78;5004668;28;20091;-81
2021/07/15 03:40:27;;;;;;;3.38;2.53;;;;;;;19.40;nan;100169.81;5006404;28;20119;-81
2021/07/15 03:42:54;;;;;;;5.63;2.40;;;;;;;19.44;nan;100168.69;4988559;28;20123;-80
2021/07/15 03:45:22;;;;;;;4.85;2.35;;;;;;;19.42;nan;100175.97;4973642;28;20041;-81
2021/07/15 03:47:57;;;;;;;6.57;2.83;;;;;;;19.39;nan;100179.66;4993130;28;20064;-79
2021/07/15 03:50:25;;;;;;;3.90;2.60;;;;;;;19.39;nan;100176.13;5017039;28;20542;-78
2021/07/15 03:52:54;;;;;;;3.85;2.55;;;;;;;19.38;nan;100182.38;4997496;28;20041;-78
2021/07/15 03:55:25;;;;;;;3.67;2.67;;;;;;;19.36;nan;100178.91;5016429;28;20080;-79
2021/07/15 03:57:51;;;;;;;4.13;2.30;;;;;;;19.35;nan;100183.41;5009320;28;20035;-77
2021/07/15 04:00:21;;;;;;;6.50;2.67;;;;;;;19.38;nan;100177.03;5012206;28;20034;-78
2021/07/15 04:02:47;;;;;;;3.70;2.88;;;;;;;19.47;nan;100179.28;4990287;28;20042;-80
2021/07/15 04:05:13;;;;;;;4.82;2.40;;;;;;;19.54;nan;100178.00;5019461;28;20030;-80
2021/07/15 04:07:39;;;;;;;3.45;2.25;;;;;;;19.58;nan;100184.97;4975999;28;20030;-79
2021/07/15 04:10:06;;;;;;;3.67;2.78;;;;;;;19.61;nan;100183.94;4999577;28;20112;-79
2021/07/15 04:12:33;;;;;;;4.18;2.58;;;;;;;19.67;nan;100187.22;5013135;28;20038;-79
2021/07/15 04:15:16;;;;;;;3.90;2.67;;;;;;;19.72;nan;100186.13;5003474;28;20045;-79
2021/07/15 04:17:47;;;;;;;5.30;2.92;;;;;;;19.81;nan;100191.91;5010392;28;20557;-80
2021/07/15 04:20:15;;;;;;;4.45;2.42;;;;;;;19.77;nan;100190.31;5008965;28;20053;-79
2021/07/15 04:22:44;;;;;;;4.30;3.03;;;;;;;19.77;nan;100190.31;5009955;28;20393;-79
2021/07/15 04:25:11;;;;;;;6.20;2.90;;;;;;;19.84;nan;100191.75;4998549;28;20045;-80
2021/07/15 04:27:38;;;;;;;6.60;3.30;;;;;;;19.90;nan;100201.28;5004862;28;20571;-80
2021/07/15 04:30:07;;;;;;;4.70;2.58;;;;;;;19.93;nan;100210.00;5003912;28;20031;-78
2021/07/15 04:32:47;;;;;;;5.40;2.97;;;;;;;19.97;nan;100201.84;5001195;28;20042;-79
2021/07/15 04:35:14;;;;;;;6.35;2.80;;;;;;;19.94;nan;100216.28;5006655;28;20034;-79
2021/07/15 04:37:42;;;;;;;6.10;2.58;;;;;;;19.99;nan;100213.34;5013691;28;20065;-78
2021/07/15 04:40:10;;;;;;;4.97;2.80;;;;;;;20.05;nan;100215.72;4983201;28;20038;-79
2021/07/15 04:42:41;;;;;;;4.70;3.08;;;;;;;20.03;nan;100217.59;4974597;28;20042;-79
2021/07/15 04:45:10;;;;;;;3.25;2.15;;;;;;;20.00;nan;100229.34;5001170;28;20048;-79
2021/07/15 04:47:39;;;;;;;4.47;2.55;;;;;;;20.07;nan;100221.88;4998675;28;20041;-79
2021/07/15 04:50:09;;;;;;;3.30;2.30;;;;;;;20.12;nan;100223.38;5003336;28;20631;-79
2021/07/15 04:52:37;;;;;;;4.22;2.20;;;;;;;20.15;nan;100214.31;4998161;28;20449;-79
2021/07/15 04:55:02;;;;;;;4.82;2.42;;;;;;;20.14;nan;100207.19;4981851;28;20125;-80
2021/07/15 04:57:28;;;;;;;3.38;2.17;;;;;;;20.12;nan;100201.94;5011877;28;20519;-80
2021/07/15 04:59:53;;;;;;;4.72;2.72;;;;;;;20.04;nan;100204.16;5015110;28;20097;-81
2021/07/15 05:02:22;;;;;;;4.63;2.85;;;;;;;20.12;nan;100222.47;5017901;28;20065;-80
2021/07/15 05:04:47;;;;;;;5.30;2.85;;;;;;;20.19;nan;100233.78;5023594;28;20030;-78
2021/07/15 05:07:13;;;;;;;4.25;2.83;;;;;;;20.09;nan;100223.50;5025511;28;20117;-81
2021/07/15 05:09:38;;;;;;;6.15;3.00;;;;;;;20.11;nan;100226.13;5028106;28;20057;-80
2021/07/15 05:12:04;;;;;;;4.88;1.98;;;;;;;20.13;nan;100224.25;5016330;28;20038;-81
2021/07/15 05:14:30;;;;;;;3.30;2.10;;;;;;;20.03;nan;100241.72;4983418;28;20100;-81
2021/07/15 05:16:58;;;;;;;3.10;2.35;;;;;;;19.98;nan;100243.75;5005286;28;20050;-81
2021/07/15 05:19:23;;;;;;;4.97;2.40;;;;;;;20.04;nan;100244.34;4986641;28;20042;-80
2021/07/15 05:21:49;;;;;;;4.30;2.70;;;;;;;20.09;nan;100239.56;5011209;28;20056;-81
2021/07/15 05:24:14;;;;;;;5.20;2.67;;;;;;;20.16;nan;100233.94;5010582;28;20034;-80
2021/07/15 05:26:39;;;;;;;4.30;3.00;;;;;;;20.29;nan;100241.25;5005862;28;20353;-81
2021/07/15 05:29:05;;;;;;;4.07;2.58;;;;;;;20.38;nan;100245.28;5010189;28;20500;-81
2021/07/15 05:31:30;;;;;;;3.33;2.30;;;;;;;20.46;nan;100237.72;5016000;28;20037;-81
2021/07/15 05:33:55;;;;;;;3.50;2.63;;;;;;;20.57;nan;100242.56;5016035;28;20038;-81
2021/07/15 05:36:21;;;;;;;4.97;3.60;;;;;;;20.67;nan;100237.56;4995453;28;20049;-80
2021/07/15 05:38:46;;;;;;;4.18;2.58;;;;;;;20.76;nan;100239.78;5015642;28;20579;-81
2021/07/15 05:41:11;;;;;;;3.92;2.40;;;;;;;20.88;nan;100233.78;4992116;28;20054;-81
2021/07/15 05:43:37;;;;;;;4.85;2.42;;;;;;;20.77;nan;100236.13;5001151;28;20041;-80
2021/07/15 05:46:03;;;;;;;3.38;2.30;;;;;;;20.90;nan;100231.84;5001419;28;20114;-81
2021/07/15 05:48:29;;;;;;;5.07;3.08;;;;;;;20.95;nan;100240.50;4979403;28;20077;-81
2021/07/15 05:50:55;;;;;;;5.60;3.05;;;;;;;21.10;nan;100243.34;4988801;28;20022;-81
2021/07/15 05:53:20;;;;;;;5.80;2.60;;;;;;;21.14;nan;100242.19;4995640;28;20039;-80
2021/07/15 05:55:46;;;;;;;3.50;2.50;;;;;;;21.20;nan;100245.44;5014287;28;20042;-80
2021/07/15 05:58:11;;;;;;;7.10;2.83;;;;;;;21.22;nan;100240.84;5017237;28;20033;-81
2021/07/15 06:00:36;;;;;;;3.85;2.45;;;;;;;21.31;nan;100236.78;5014422;28;20117;-81
2021/07/15 06:03:01;;;;;;;5.70;3.00;;;;;;;21.42;nan;100238.91;5013935;28;20084;-81
2021/07/15 06:05:30;;;;;;;4.28;2.50;;;;;;;21.69;nan;100239.16;5014651;28;20065;-81
2021/07/15 06:07:57;;;;;;;3.70;2.40;;;;;;;21.69;nan;100246.34;4981325;28;20062;-80
2021/07/15 06:10:23;;;;;;;4.00;2.72;;;;;;;21.68;nan;100240.13;5016306;28;20065;-81
2021/07/15 06:12:48;;;;;;;4.70;2.80;;;;;;;21.77;nan;100238.72;4983627;28;20030;-80
2021/07/15 06:15:13;;;;;;;5.05;2.88;;;;;;;21.90;nan;100245.13;5019267;28;20026;-81
2021/07/15 06:17:39;;;;;;;3.78;2.75;;;;;;;21.87;nan;100238.09;5003783;28;20492;-80
2021/07/15 06:20:05;;;;;;;6.05;2.40;;;;;;;21.94;nan;100235.06;5021881;28;20042;-80
2021/07/15 06:22:30;;;;;;;4.25;2.80;;;;;;;21.83;nan;100239.25;5003185;28;20034;-80
2021/07/15 06:24:55;;;;;;;4.93;3.13;;;;;;;21.68;nan;100232.06;5016360;28;20039;-81
2021/07/15 06:27:24;;;;;;;4.43;2.92;;;;;;;21.69;nan;100235.59;5019769;28;20038;-81
2021/07/15 06:29:49;;;;;;;4.50;2.80;;;;;;;21.69;nan;100239.16;4997929;28;20042;-81
2021/07/15 06:32:15;;;;;;;4.60;2.97;;;;;;;21.70;nan;100238.22;4989680;28;20033;-81
2021/07/15 06:34:40;;;;;;;4.18;3.00;;;;;;;21.76;nan;100243.22;5013786;28;20080;-80
2021/07/15 06:37:08;;;;;;;4.15;2.90;;;;;;;21.89;nan;100238.88;5010501;28;20045;-81
2021/07/15 06:39:33;;;;;;;3.97;2.83;;;;;;;21.97;nan;100246.50;5015960;28;20038;-80
2021/07/15 06:41:59;;;;;;;3.60;2.28;;;;;;;21.99;nan;100239.22;5014921;28;20049;-81
2021/07/15 06:44:25;;;;;;;3.45;2.50;;;;;;;22.07;nan;100236.09;5010236;28;20041;-80
2021/07/15 06:46:50;;;;;;;3.72;2.95;;;;;;;22.18;nan;100228.25;5023197;28;20061;-80
2021/07/15 06:49:15;;;;;;;5.75;2.67;;;;;;;22.29;nan;100233.88;5002837;28;20196;-81
2021/07/15 06:51:41;;;;;;;3.88;3.00;;;;;;;22.41;nan;100232.28;5019158;28;20026;-81
2021/07/15 06:54:06;;;;;;;4.22;2.53;;;;;;;22.18;nan;100236.31;4999453;28;21757;-80
2021/07/15 06:56:31;;;;;;;4.13;2.08;;;;;;;22.10;nan;100235.91;4997354;28;20053;-81
2021/07/15 06:58:56;;;;;;;4.57;2.20;;;;;;;22.25;nan;100226.97;4991141;28;20485;-80
2021/07/15 07:01:22;;;;;;;4.00;2.50;;;;;;;22.18;nan;100236.31;5008998;28;20034;-80
2021/07/15 07:03:47;;;;;;;3.35;2.30;;;;;;;22.33;nan;100239.09;5006461;28;20568;-81
2021/07/15 07:06:12;;;;;;;3.17;2.03;;;;;;;22.37;nan;100248.69;5006622;28;20069;-80
2021/07/15 07:08:38;;;;;;;3.58;1.70;;;;;;;22.36;nan;100246.97;5003595;28;20056;-81
2021/07/15 07:11:03;;;;;;;4.85;2.90;;;;;;;22.53;nan;100236.06;5023627;28;20046;-81
2021/07/15 07:13:28;;;;;;;4.07;1.90;;;;;;;22.59;nan;100238.38;4985886;28;20030;-80
2021/07/15 07:15:54;;;;;;;4.03;2.03;;;;;;;22.68;nan;100232.44;5017944;28;20080;-81
2021/07/15 07:18:20;;;;;;;4.68;2.13;;;;;;;22.87;nan;100240.25;4999843;28;20038;-80
2021/07/15 07:20:45;;;;;;;3.83;2.13;;;;;;;23.05;nan;100240.94;5000669;28;20033;-81
2021/07/15 07:23:13;;;;;;;3.22;1.77;;;;;;;23.29;nan;100238.56;5018081;28;20029;-81
2021/07/15 07:25:39;;;;;;;3.17;2.20;;;;;;;23.50;nan;100243.50;5002607;28;20045;-81
2021/07/15 07:28:05;;;;;;;3.50;1.90;;;;;;;23.62;nan;100243.56;5016597;28;20069;-81
2021/07/15 07:30:30;;;;;;;2.60;1.52;;;;;;;23.78;nan;100246.16;5000344;28;20626;-81
2021/07/15 07:32:55;;;;;;;4.43;1.45;;;;;;;23.74;nan;100243.81;4999100;28;20022;-81
2021/07/15 07:35:21;;;;;;;2.13;1.20;;;;;;;23.89;nan;100237.38;5004408;28;20501;-81
2021/07/15 07:37:47;;;;;;;2.53;1.40;;;;;;;24.00;nan;100242.94;5015038;28;20507;-81
2021/07/15 07:40:13;;;;;;;3.13;1.80;;;;;;;24.06;nan;100247.91;5025075;28;20582;-81
2021/07/15 07:42:38;;;;;;;4.93;1.50;;;;;;;24.01;nan;100247.34;5019764;28;20038;-81
2021/07/15 07:45:06;;;;;;;2.65;1.63;;;;;;;23.98;nan;100252.94;5015432;28;20049;-80
2021/07/15 07:47:32;;;;;;;2.13;1.40;;;;;;;23.91;nan;100256.16;4984731;28;20097;-80
2021/07/15 07:49:58;;;;;;;2.72;1.70;;;;;;;23.99;nan;100259.19;4998354;28;20038;-80
2021/07/15 07:52:23;;;;;;;4.13;1.63;;;;;;;24.03;nan;100261.59;4991060;28;20045;-81
2021/07/15 07:54:48;;;;;;;3.10;2.00;;;;;;;24.34;nan;100258.66;4999258;28;20485;-81
2021/07/15 07:57:14;;;;;;;2.97;1.92;;;;;;;24.51;nan;100266.50;5017623;28;20042;-81
2021/07/15 07:59:39;;;;;;;3.38;2.10;;;;;;;24.39;nan;100265.50;5017747;28;20038;-81
2021/07/15 08:02:04;;;;;;;3.97;1.67;;;;;;;24.47;nan;100264.97;5010347;28;20067;-81
2021/07/15 08:04:30;;;;;;;4.20;1.70;;;;;;;24.67;nan;100266.31;5000384;28;20037;-80
2021/07/15 08:06:56;;;;;;;2.97;1.90;;;;;;;24.90;nan;100257.47;5016020;28;20042;-80
2021/07/15 08:09:23;;;;;;;2.45;1.50;;;;;;;25.00;nan;100252.28;5001293;28;20037;-80
2021/07/15 08:11:51;;;;;;;2.35;1.50;;;;;;;25.04;nan;100244.84;4998681;28;20030;-81
2021/07/15 08:14:16;;;;;;;2.88;1.90;;;;;;;25.14;nan;100248.59;5018074;28;20057;-81
2021/07/15 08:16:42;;;;;;;4.97;2.00;;;;;;;25.34;nan;100249.91;5011920;28;20038;-80
2021/07/15 08:19:07;;;;;;;4.07;1.90;;;;;;;25.59;nan;100255.25;5011669;28;20050;-81
2021/07/15 08:21:34;;;;;;;4.53;2.25;;;;;;;25.64;nan;100257.63;5001138;28;20511;-81
2021/07/15 08:24:00;;;;;;;3.58;1.70;;;;;;;25.71;nan;100252.63;4993184;28;20038;-81
2021/07/15 08:26:25;;;;;;;8.35;3.58;;;;;;;25.61;nan;100251.59;4977852;28;20055;-81
2021/07/15 08:28:50;;;;;;;3.10;2.00;;;;;;;25.71;nan;100245.38;5014618;28;20471;-80
2021/07/15 08:31:16;;;;;;;6.35;4.22;;;;;;;25.73;nan;100246.13;4984730;28;20030;-81
2021/07/15 08:33:42;;;;;;;3.45;2.28;;;;;;;25.83;nan;100240.03;5016505;28;20061;-81
2021/07/15 08:36:07;;;;;;;3.13;1.50;;;;;;;25.56;nan;100243.81;5017260;28;20154;-81
2021/07/15 08:38:32;;;;;;;2.60;1.40;;;;;;;25.25;nan;100235.22;4999163;28;20500;-81
2021/07/15 08:40:58;;;;;;;3.30;1.75;;;;;;;24.94;nan;100231.13;4982944;28;20057;-81
2021/07/15 08:43:23;;;;;;;2.08;1.30;;;;;;;24.70;nan;100233.72;5016850;28;20042;-81
2021/07/15 08:45:50;;;;;;;3.22;1.63;;;;;;;24.89;nan;100233.31;5011824;28;20130;-79
2021/07/15 08:48:17;;;;;;;2.83;1.40;;;;;;;25.18;nan;100238.47;5011055;28;20038;-80
2021/07/15 08:50:43;;;;;;;3.65;1.88;;;;;;;25.11;nan;100244.28;4995022;28;20085;-80
2021/07/15 08:53:10;;;;;;;3.78;1.42;;;;;;;25.21;nan;100249.94;5019966;28;20030;-81
2021/07/15 08:58:20;;;;;;;2.55;1.58;;;;;;;25.76;nan;100259.44;5018813;28;20038;-82
2021/07/15 09:00:48;;;;;;;3.85;2.20;;;;;;;26.09;nan;100257.91;5000881;28;20034;-82
2021/07/15 09:03:14;;;;;;;2.95;1.67;;;;;;;26.33;nan;100265.13;5006614;28;20102;-82
2021/07/15 09:05:41;;;;;;;2.53;1.45;;;;;;;26.57;nan;100263.31;5014465;28;20049;-81
2021/07/15 09:08:07;;;;;;;2.20;1.58;;;;;;;26.58;nan;100265.00;5015018;28;20157;-82
2021/07/15 09:10:32;;;;;;;3.28;1.30;;;;;;;26.66;nan;100264.44;5012293;28;20436;-82
2021/07/15 09:12:59;;;;;;;2.20;1.20;;;;;;;26.69;nan;100261.47;5005645;28;20038;-81
2021/07/15 09:15:25;;;;;;;2.95;1.50;;;;;;;26.47;nan;100264.97;5000571;28;20038;-82
2021/07/15 09:17:50;;;;;;;2.63;1.30;;;;;;;26.66;nan;100267.13;4999319;28;20037;-82
2021/07/15 09:20:22;;;;;;;1.55;1.10;;;;;;;26.87;nan;100260.03;4981444;28;20042;-82
2021/07/15 09:22:59;;;;;;;3.38;1.73;;;;;;;26.98;nan;100269.16;5017141;28;20037;-81
2021/07/15 09:25:25;;;;;;;2.30;1.50;;;;;;;27.18;nan;100262.19;5013195;28;20042;-82
2021/07/15 09:27:50;;;;;;;3.53;1.20;;;;;;;27.10;nan;100262.78;5014301;28;20049;-82
2021/07/15 09:30:17;;;;;;;2.45;1.20;;;;;;;27.15;nan;100262.41;4978115;28;20037;-81
2021/07/15 09:33:00;;;;;;;2.60;1.10;;;;;;;27.21;nan;100261.94;4988035;28;20053;-81
2021/07/15 09:35:37;;;;;;;1.90;1.35;;;;;;;27.11;nan;100268.06;4981739;28;20090;-80
2021/07/15 09:38:12;;;;;;;2.83;1.42;;;;;;;26.68;nan;100276.00;5017613;28;20038;-82
2021/07/15 09:40:43;;;;;;;3.38;1.17;;;;;;;26.62;nan;100268.38;5014540;28;20101;-81
2021/07/15 09:43:24;;;;;;;1.80;1.30;;;;;;;26.66;nan;100267.13;4980109;28;20049;-81
2021/07/15 09:45:53;;;;;;;2.13;1.45;;;;;;;26.71;nan;100264.06;5019005;28;20480;-82
2021/07/15 09:48:23;;;;;;;1.98;1.40;;;;;;;26.61;nan;100270.19;4986222;28;20054;-81
2021/07/15 09:50:54;;;;;;;2.50;1.30;;;;;;;26.85;nan;100261.13;5018292;28;20198;-80
2021/07/15 09:53:24;;;;;;;2.97;1.60;;;;;;;27.01;nan;100275.22;5017076;28;20034;-82
2021/07/15 09:56:04;;;;;;;2.90;1.90;;;;;;;27.19;nan;100274.75;5014914;28;20081;-82
2021/07/15 09:58:33;;;;;;;3.97;1.88;;;;;;;27.31;nan;100276.50;5007736;28;20048;-82
2021/07/15 10:01:15;;;;;;;1.77;1.25;;;;;;;27.50;nan;100284.84;5016288;28;20026;-81
2021/07/15 10:03:42;;;;;;;3.85;1.98;;;;;;;27.79;nan;100288.88;5016471;28;20030;-82
2021/07/15 10:06:11;;;;;;;2.58;1.70;;;;;;;28.00;nan;100287.13;4985016;28;20038;-82
2021/07/15 10:08:39;;;;;;;2.53;1.63;;;;;;;27.97;nan;100271.13;5011920;28;20107;-81
2021/07/15 10:11:16;;;;;;;2.50;1.70;;;;;;;28.01;nan;100282.56;4978750;28;20065;-83
2021/07/15 10:13:43;;;;;;;1.83;1.30;;;;;;;28.14;nan;100280.59;5011965;28;20034;-82
2021/07/15 10:16:09;;;;;;;2.85;1.80;;;;;;;28.30;nan;100285.59;4999084;28;20025;-82
2021/07/15 10:18:39;;;;;;;2.95;1.90;;;;;;;28.39;nan;100288.34;5017775;28;20531;-80
2021/07/15 10:21:07;;;;;;;4.68;4.18;;;;;;;28.58;nan;100278.69;5000264;28;20053;-81
2021/07/15 10:23:44;;;;;;;2.50;1.70;;;;;;;28.71;nan;100281.19;4992523;28;20400;-83
2021/07/15 10:26:12;;;;;;;3.40;2.55;;;;;;;28.58;nan;100273.25;4995334;28;20037;-81
2021/07/15 10:28:42;;;;;;;2.85;1.70;;;;;;;28.42;nan;100274.53;5003001;28;20045;-79
2021/07/15 10:31:08;;;;;;;3.03;1.80;;;;;;;27.75;nan;100275.59;4996754;28;20061;-82
2021/07/15 10:33:35;;;;;;;2.80;1.92;;;;;;;27.81;nan;100274.25;4999188;28;20089;-82
2021/07/15 10:36:03;;;;;;;2.75;1.98;;;;;;;28.21;nan;100272.78;5016330;28;20038;-81
2021/07/15 10:38:33;;;;;;;4.82;4.32;;;;;;;28.60;nan;100273.97;5011337;28;20035;-83
2021/07/15 10:40:59;;;;;;;4.93;2.97;;;;;;;29.11;nan;100281.34;5016184;28;20042;-82
2021/07/15 10:43:25;;;;;;;5.38;3.45;;;;;;;29.62;nan;100277.69;4999310;28;20041;-82
2021/07/15 10:45:52;;;;;;;3.63;2.33;;;;;;;29.96;nan;100279.25;5015880;28;20049;-83
2021/07/15 10:48:18;;;;;;;2.40;1.52;;;;;;;29.99;nan;100271.66;4980104;28;20408;-81
2021/07/15 10:50:44;;;;;;;4.85;4.28;;;;;;;29.83;nan;100276.78;4987351;28;20062;-81
2021/07/15 10:53:12;;;;;;;3.30;1.90;;;;;;;29.66;nan;100272.88;4987837;28;20034;-81
2021/07/15 10:55:38;;;;;;;2.05;1.40;;;;;;;29.41;nan;100271.47;5015297;28;20072;-81
2021/07/15 10:58:03;;;;;;;2.08;1.63;;;;;;;28.89;nan;100267.88;5014986;28;20030;-80
2021/07/15 11:00:29;;;;;;;2.20;1.70;;;;;;;28.39;nan;100266.63;5018219;28;20038;-81
2021/07/15 11:03:22;;;;;;;3.72;1.50;;;;;;;28.27;nan;100262.28;5016389;28;20043;-81
2021/07/15 11:05:51;;;;;;;3.08;1.70;;;;;;;28.01;nan;100266.28;5019329;28;20033;-81
2021/07/15 11:08:17;;;;;;;3.00;1.73;;;;;;;27.91;nan;100275.22;5000590;28;20042;-82
2021/07/15 11:10:44;;;;;;;3.67;1.55;;;;;;;27.83;nan;100275.00;5020554;28;20571;-81
2021/07/15 11:13:10;;;;;;;1.90;1.40;;;;;;;28.04;nan;100266.91;5018383;28;20030;-81
2021/07/15 11:15:46;;;;;;;5.13;1.60;;;;;;;28.37;nan;100268.66;5018505;28;20088;-82
2021/07/15 11:18:37;;;;;;;2.28;1.40;;;;;;;28.40;nan;100279.25;5013036;28;20034;-82
2021/07/15 11:21:30;;;;;;;3.30;1.30;;;;;;;27.97;nan;100274.69;5002207;28;20037;-82
2021/07/15 11:24:04;;;;;;;2.28;1.40;;;;;;;27.83;nan;100280.41;5017268;28;20046;-82
2021/07/15 11:26:37;;;;;;;2.45;1.50;;;;;;;27.96;nan;100272.97;5002585;28;20187;-81
2021/07/15 11:29:03;;;;;;;2.63;1.75;;;;;;;28.14;nan;100273.31;4998316;28;20035;-82
2021/07/15 11:31:46;;;;;;;4.15;1.80;;;;;;;28.01;nan;100263.59;5020932;28;20065;-82
2021/07/15 11:34:35;;;;;;;9.48;3.47;;;;;;;28.14;nan;100264.31;5021180;28;20037;-82
2021/07/15 11:37:32;;;;;;;2.58;1.60;;;;;;;28.21;nan;100264.63;4984399;28;20054;-81
2021/07/15 11:39:58;;;;;;;2.90;1.70;;;;;;;28.13;nan;100257.13;5014548;28;20053;-82
2021/07/15 11:42:26;;;;;;;2.72;1.60;;;;;;;28.20;nan;100255.63;5001384;28;20045;-82
2021/07/15 11:45:04;;;;;;;3.22;1.98;;;;;;;28.57;nan;100258.81;4967025;28;20045;-82
2021/07/15 11:47:43;;;;;;;5.97;2.90;;;;;;;29.23;nan;100261.22;4999375;28;20065;-81
2021/07/15 11:50:31;;;;;;;4.85;2.70;;;;;;;29.86;nan;100252.00;5018129;28;20120;-80